KSEAKRNT

Guest
Details From KSEA - Seattle Tacoma Intl
To KRNT - Renton Muni
Flight Number -
Tags generated
Created
Modified
Stats Distance 5 nm / 9 km
Max Altitude 0 ft / 0 m
Waypoints 2
Social Downloads 5
Likes 0
Share VATSIM

Download

Looking for another format? Having issues loading an existing format? Contact us
Advertisement - Login to hide

Notes

Basic altitude profile: - Ascent Rate: 2500ft/min - Ascent Speed: 250kts - Cruise Altitude: 35000ft - Cruise Speed: 420kts - Descent Rate: 1500ft/min - Descent Speed: 250kts Options: - Use NATs: yes - Use PACOTS: yes - Use low airways: yes - Use high airways: no

Route

KSEA KRNT

ID Type Via Altitude Latitude Longitude Leg Dist Tot Dist Heading (true) Name
O KSEA APT - 0 ft / 0 m 47.45019˚ -122.31232˚ - 0 nm - Seattle Tacoma Intl
O KRNT APT - 0 ft / 0 m 47.49313˚ -122.21574˚ 4 nm 4 nm 57° / 57° Renton Muni

Altitude Profile

Advertisement - Login to hide

KSEA

Details ICAO KSEA (SEA)
Name Seattle Tacoma Intl
Region United States
Timezone America/Los_Angeles (UTC-7.0)
Stats Elevation 433 ft / 132 m (AMSL)
Location 47.450188° -122.312320°
Runways 3
Magnetic Variation 15.622° E

METAR

KSEA 252353Z 01004KT 10SM FEW032 BKN050 BKN250 19/09 A3001 RMK AO2 SLP169 T01940094 10200 20139 58006

Decode

TAF

KSEA 252325Z 2600/2706 33007KT P6SM SCT030 BKN050 FM260500 22005KT P6SM SCT030 BKN045 FM260900 16006KT 5SM -DZ BR SCT010 BKN015 OVC025 FM261400 18005KT P6SM SCT007 BKN012 OVC020 FM261800 22005KT P6SM SCT015 BKN030 FM262100 25006KT P6SM SCT030 SCT045 FM270100 32005KT P6SM BKN045

Decode

Departure Runways

ID Width Length Bearing (true) Bearing (mag) Surface Threshold Offset Overrun Length
16C 151 ft / 46 m 9,429 ft / 2,874 m 180.34° 164.72° Concrete 0 ft / 0 m 223 ft / 68 m
16L 151 ft / 46 m 11,904 ft / 3,628 m 180.34° 164.72° Concrete 0 ft / 0 m 151 ft / 46 m
16R 151 ft / 46 m 8,503 ft / 2,592 m 180.34° 164.72° Concrete 0 ft / 0 m 164 ft / 50 m
34C 151 ft / 46 m 9,429 ft / 2,874 m 0.34° 344.72° Concrete 0 ft / 0 m 394 ft / 120 m
34L 151 ft / 46 m 8,503 ft / 2,592 m 0.34° 344.72° Concrete 0 ft / 0 m 394 ft / 120 m
34R 151 ft / 46 m 11,904 ft / 3,628 m 0.34° 344.72° Concrete 0 ft / 0 m 400 ft / 122 m

KRNT

Details ICAO KRNT (RNT)
Name Renton Muni
Region United States
Timezone America/Los_Angeles (UTC-7.0)
Stats Elevation 32 ft / 10 m (AMSL)
Location 47.493133° -122.215743°
Runways 1
Magnetic Variation 15.615° E

METAR

KRNT 252353Z 33006KT 10SM OVC055 19/10 A3001 RMK AO2 SLP166 T01890100 10200 20150 56006

Decode

TAF

Not found

Destination Runways

ID Width Length Bearing (true) Bearing (mag) Surface Threshold Offset Overrun Length
16 200 ft / 61 m 5,384 ft / 1,641 m 174.16° 158.55° Asphalt 299 ft / 91 m 0 ft / 0 m
34 200 ft / 61 m 5,384 ft / 1,641 m 354.17° 338.56° Asphalt 341 ft / 104 m 210 ft / 64 m

Popular Alternatives